Time;durP1;ratioP1;P1;durP2;ratioP2;P2;SDS_P1;SDS_P2;PMS_P1;PMS_P2;Temp;Humidity;BMP_temperature;BMP_pressure;BME280_temperature;BME280_humidity;BME280_pressure;Samples;Min_cycle;Max_cycle;Signal;HPM_P1;HPM_P2
2021/04/17 00:00:28;;;;;;;27.38;24.38;;;;;;;-0.57;100.00;101573.84;4929699;29;20369;-87
2021/04/17 00:02:57;;;;;;;25.88;23.20;;;;;;;-0.63;100.00;101569.06;4932941;29;20046;-87
2021/04/17 00:05:23;;;;;;;27.52;24.77;;;;;;;-0.60;100.00;101561.03;4935413;29;20110;-87
2021/04/17 00:07:51;;;;;;;26.63;23.77;;;;;;;-0.40;100.00;101562.16;4933938;29;20051;-88
2021/04/17 00:10:20;;;;;;;28.35;25.42;;;;;;;-0.35;100.00;101562.66;4932224;29;20047;-88
2021/04/17 00:12:48;;;;;;;28.75;25.58;;;;;;;-0.44;100.00;101555.50;4927853;29;20544;-86
2021/04/17 00:15:17;;;;;;;29.63;26.73;;;;;;;-0.67;100.00;101562.41;4928181;29;20566;-87
2021/04/17 00:17:45;;;;;;;24.58;22.30;;;;;;;-1.01;100.00;101557.84;4931119;29;20056;-87
2021/04/17 00:20:14;;;;;;;25.50;23.10;;;;;;;-0.86;100.00;101553.31;4935536;29;20052;-87
2021/04/17 00:22:43;;;;;;;24.50;22.10;;;;;;;-0.86;100.00;101562.91;4933434;29;20055;-88
2021/04/17 00:25:10;;;;;;;23.50;21.30;;;;;;;-0.78;100.00;101560.59;4926455;29;20115;-86
2021/04/17 00:27:37;;;;;;;22.35;20.35;;;;;;;-0.87;100.00;101551.66;4933416;29;20059;-88
2021/04/17 00:30:05;;;;;;;24.92;22.25;;;;;;;-0.96;100.00;101555.75;4929955;29;20059;-86
2021/04/17 00:32:31;;;;;;;22.77;20.58;;;;;;;-0.81;100.00;101558.19;4929196;29;20406;-86
2021/04/17 00:34:58;;;;;;;21.63;19.63;;;;;;;-0.81;100.00;101561.63;4930298;29;20059;-87
2021/04/17 00:37:24;;;;;;;20.10;18.40;;;;;;;-1.33;100.00;101572.34;4933162;29;20520;-89
2021/04/17 00:39:51;;;;;;;21.48;19.23;;;;;;;-0.96;100.00;101567.97;4927704;29;20048;-89
2021/04/17 00:42:17;;;;;;;20.90;19.10;;;;;;;-0.66;100.00;101571.91;4930308;29;20060;-88
2021/04/17 00:44:43;;;;;;;23.52;21.20;;;;;;;-0.60;100.00;101564.47;4933032;29;20047;-86
2021/04/17 00:47:12;;;;;;;23.92;21.55;;;;;;;-0.48;100.00;101571.38;4929324;29;20048;-86
2021/04/17 00:49:39;;;;;;;26.17;23.58;;;;;;;-0.31;100.00;101577.94;4934486;29;20051;-86
2021/04/17 00:52:06;;;;;;;26.10;23.77;;;;;;;-0.15;100.00;101574.19;4933411;29;20050;-86
2021/04/17 00:54:32;;;;;;;26.27;23.40;;;;;;;-0.35;100.00;101565.25;4928194;29;20048;-86
2021/04/17 00:57:00;;;;;;;26.25;23.85;;;;;;;-0.19;100.00;101565.75;4927943;29;20055;-87
2021/04/17 00:59:29;;;;;;;25.70;23.45;;;;;;;-0.16;100.00;101567.31;4928568;29;20048;-86
2021/04/17 01:01:58;;;;;;;24.52;22.10;;;;;;;-0.68;100.00;101560.75;4933783;29;20143;-86
2021/04/17 01:04:31;;;;;;;23.08;20.58;;;;;;;-0.92;100.00;101565.00;4929314;29;20044;-87
2021/04/17 01:07:08;;;;;;;22.83;20.52;;;;;;;-1.00;100.00;101563.88;4921561;29;20052;-87
2021/04/17 01:09:40;;;;;;;23.52;21.02;;;;;;;-0.44;100.00;101565.94;4924061;29;20071;-87
2021/04/17 01:12:13;;;;;;;25.25;22.80;;;;;;;-0.41;100.00;101569.16;4933178;29;20056;-88
2021/04/17 01:14:42;;;;;;;22.27;20.25;;;;;;;-0.56;100.00;101562.44;4932238;29;20060;-87
2021/04/17 01:17:11;;;;;;;23.05;20.90;;;;;;;-0.40;100.00;101562.16;4932616;29;20047;-87
2021/04/17 01:19:55;;;;;;;25.27;23.10;;;;;;;-0.23;100.00;101556.50;4925263;29;20052;-87
2021/04/17 01:22:26;;;;;;;24.05;21.90;;;;;;;-0.63;100.00;101556.03;4924692;29;20052;-87
2021/04/17 01:25:07;;;;;;;26.10;23.60;;;;;;;-0.95;100.00;101552.19;4934918;29;20058;-87
2021/04/17 01:27:36;;;;;;;24.90;22.40;;;;;;;-0.68;100.00;101550.31;4929226;29;20076;-87
2021/04/17 01:30:06;;;;;;;24.83;22.42;;;;;;;-0.90;100.00;101543.22;4932250;29;20051;-87
2021/04/17 01:32:33;;;;;;;24.05;21.73;;;;;;;-0.83;100.00;101536.59;4936095;29;20497;-87
2021/04/17 01:35:00;;;;;;;28.35;25.48;;;;;;;-0.76;100.00;101532.59;4938206;29;20082;-87
2021/04/17 01:37:52;;;;;;;28.05;25.08;;;;;;;-0.76;100.00;101529.97;4933432;29;20060;-87
2021/04/17 01:40:23;;;;;;;26.23;23.55;;;;;;;-1.03;100.00;101531.06;4911513;29;20044;-88
2021/04/17 01:42:51;;;;;;;23.30;20.88;;;;;;;-1.14;100.00;101524.97;4931602;29;20066;-87
2021/04/17 01:45:20;;;;;;;22.75;20.40;;;;;;;-1.29;100.00;101527.72;4924095;29;20051;-87
2021/04/17 01:47:49;;;;;;;22.42;20.23;;;;;;;-1.03;100.00;101522.38;4927066;29;20080;-87
2021/04/17 01:50:21;;;;;;;24.35;22.00;;;;;;;-0.96;100.00;101529.66;4934956;29;20052;-87
2021/04/17 01:52:49;;;;;;;24.05;21.55;;;;;;;-1.02;100.00;101524.91;4927420;29;20064;-87
2021/04/17 01:55:16;;;;;;;23.90;21.58;;;;;;;-1.06;100.00;101522.59;4927642;29;20055;-87
2021/04/17 01:57:45;;;;;;;24.10;21.83;;;;;;;-1.02;100.00;101522.28;4936097;29;20051;-87
2021/04/17 02:00:37;;;;;;;23.98;21.48;;;;;;;-1.10;100.00;101515.97;4935745;29;20055;-87
2021/04/17 02:03:04;;;;;;;25.90;20.67;;;;;;;-0.87;100.00;101516.91;4926936;29;20110;-87
2021/04/17 02:05:34;;;;;;;24.15;22.05;;;;;;;-0.64;100.00;101507.38;4927927;29;20079;-87
2021/04/17 02:08:01;;;;;;;25.63;22.90;;;;;;;-0.59;100.00;101520.94;4931980;29;20410;-87
2021/04/17 02:10:27;;;;;;;24.45;21.52;;;;;;;-0.69;100.00;101520.78;5028289;23;20052;-87
2021/04/17 02:12:54;;;;;;;23.05;20.75;;;;;;;-0.70;100.00;101522.56;4920792;29;20056;-87
2021/04/17 02:15:20;;;;;;;23.70;21.38;;;;;;;-0.51;100.00;101516.81;4923718;29;20522;-87
2021/04/17 02:17:54;;;;;;;24.55;21.85;;;;;;;-0.63;100.00;101512.50;4922673;29;20410;-87
2021/04/17 02:20:28;;;;;;;26.25;23.85;;;;;;;-0.36;100.00;101516.63;4932621;29;20690;-87
2021/04/17 02:22:55;;;;;;;26.38;23.80;;;;;;;-0.40;100.00;101507.31;4926729;29;20568;-88
2021/04/17 02:25:22;;;;;;;28.35;25.50;;;;;;;-0.51;100.00;101511.59;4922756;29;20052;-87
2021/04/17 02:27:48;;;;;;;27.50;24.98;;;;;;;-0.56;100.00;101502.44;4920212;29;20529;-87
2021/04/17 02:30:16;;;;;;;27.25;23.88;;;;;;;-0.91;100.00;101508.47;4914231;29;20048;-87
2021/04/17 02:32:43;;;;;;;26.77;23.98;;;;;;;-0.64;100.00;101513.41;4924426;29;20056;-87
2021/04/17 02:35:11;;;;;;;25.23;22.75;;;;;;;-0.49;100.00;101508.84;4921470;29;20067;-87
2021/04/17 02:37:37;;;;;;;27.67;24.83;;;;;;;-0.64;100.00;101507.38;4923223;29;20052;-87
2021/04/17 02:40:05;;;;;;;32.25;28.95;;;;;;;-0.82;100.00;101504.34;4921185;29;20048;-86
2021/04/17 02:42:31;;;;;;;31.17;27.67;;;;;;;-1.25;100.00;101499.66;4924927;29;20417;-87
2021/04/17 02:44:57;;;;;;;30.05;26.88;;;;;;;-1.13;100.00;101498.75;4921662;29;20103;-87
2021/04/17 02:47:24;;;;;;;26.85;24.10;;;;;;;-0.96;100.00;101498.38;4922621;29;20047;-87
2021/04/17 02:49:50;;;;;;;29.23;26.10;;;;;;;-0.93;100.00;101497.31;4927657;29;20051;-87
2021/04/17 02:52:17;;;;;;;29.55;26.52;;;;;;;-0.59;100.00;101497.44;4924869;29;20056;-87
2021/04/17 02:54:44;;;;;;;28.70;25.75;;;;;;;-0.65;100.00;101485.69;4924350;29;20052;-86
2021/04/17 02:57:10;;;;;;;29.40;23.38;;;;;;;-1.09;100.00;101497.63;4923077;29;20055;-87
2021/04/17 02:59:36;;;;;;;27.95;25.02;;;;;;;-0.70;100.00;101503.44;4934995;29;20436;-87
2021/04/17 03:02:03;;;;;;;24.95;22.42;;;;;;;-0.40;100.00;101497.72;4923925;29;20055;-87
2021/04/17 03:04:29;;;;;;;27.88;24.98;;;;;;;-0.62;100.00;101501.09;4913216;29;20108;-88
2021/04/17 03:06:55;;;;;;;27.15;23.55;;;;;;;-0.36;100.00;101511.38;4920363;29;20056;-87
2021/04/17 03:09:22;;;;;;;26.88;24.08;;;;;;;-0.33;100.00;101501.53;4924058;29;20051;-88
2021/04/17 03:11:49;;;;;;;26.85;24.17;;;;;;;-0.18;100.00;101506.53;4919505;29;20062;-87
2021/04/17 03:14:15;;;;;;;24.35;21.85;;;;;;;-0.30;100.00;101501.31;4922381;29;20063;-88
2021/04/17 03:16:41;;;;;;;24.83;22.35;;;;;;;-0.18;100.00;101499.56;4922096;29;20056;-88
2021/04/17 03:19:08;;;;;;;24.45;22.05;;;;;;;-0.19;100.00;101500.47;4922911;29;20064;-88
2021/04/17 03:21:34;;;;;;;26.25;23.80;;;;;;;0.12;100.00;101498.97;4919943;29;20055;-88
2021/04/17 03:24:00;;;;;;;25.15;22.75;;;;;;;0.21;100.00;101513.09;4922736;29;20043;-87
2021/04/17 03:26:28;;;;;;;24.80;22.38;;;;;;;0.34;100.00;101513.81;4922223;29;20132;-88
2021/04/17 03:28:54;;;;;;;25.77;23.27;;;;;;;0.40;100.00;101513.34;4922012;29;20059;-87
2021/04/17 03:31:20;;;;;;;25.70;23.45;;;;;;;0.46;100.00;101517.25;4923646;29;20051;-88
2021/04/17 03:33:47;;;;;;;24.35;21.95;;;;;;;0.51;100.00;101517.69;4923513;29;20054;-88
2021/04/17 03:36:13;;;;;;;26.40;23.83;;;;;;;0.62;100.00;101522.91;4904923;29;20048;-89
2021/04/17 03:38:40;;;;;;;23.00;21.00;;;;;;;0.48;100.00;101519.72;4922109;29;20044;-89
2021/04/17 03:41:06;;;;;;;26.70;24.50;;;;;;;0.77;100.00;101527.88;4922948;29;20047;-88
2021/04/17 03:43:34;;;;;;;24.92;22.80;;;;;;;0.60;100.00;101529.22;4922317;29;20131;-89
2021/04/17 03:46:00;;;;;;;23.13;21.20;;;;;;;0.55;100.00;101537.44;4927625;29;20477;-87
2021/04/17 03:48:26;;;;;;;21.38;19.58;;;;;;;0.58;100.00;101539.00;4921490;29;20071;-87
2021/04/17 03:50:52;;;;;;;22.75;20.67;;;;;;;0.50;100.00;101550.03;4915657;29;20104;-87
2021/04/17 03:53:19;;;;;;;23.67;21.30;;;;;;;0.63;100.00;101545.50;4923570;29;20060;-87
2021/04/17 03:55:45;;;;;;;23.75;21.40;;;;;;;0.74;100.00;101551.69;4923958;29;20051;-87
2021/04/17 03:58:11;;;;;;;23.67;20.40;;;;;;;0.48;100.00;101558.94;4921627;29;20052;-88
2021/04/17 04:00:39;;;;;;;26.67;24.42;;;;;;;0.74;100.00;101554.28;4930058;29;20048;-88
2021/04/17 04:03:05;;;;;;;24.40;22.23;;;;;;;0.79;100.00;101563.44;4922890;29;20591;-88
2021/04/17 04:05:32;;;;;;;24.80;22.50;;;;;;;1.02;100.00;101558.97;4923912;29;20048;-89
2021/04/17 04:07:58;;;;;;;23.67;21.48;;;;;;;0.98;100.00;101559.34;4923057;29;20103;-88
2021/04/17 04:10:24;;;;;;;26.45;23.98;;;;;;;1.06;100.00;101564.78;4920589;29;20048;-88
2021/04/17 04:12:51;;;;;;;25.17;22.80;;;;;;;0.90;100.00;101566.00;4921523;29;20055;-89
2021/04/17 04:15:17;;;;;;;24.38;22.17;;;;;;;1.23;100.00;101564.25;4923247;29;20048;-87
2021/04/17 04:17:45;;;;;;;25.50;23.15;;;;;;;1.33;100.00;101569.56;4925625;29;20501;-88
2021/04/17 04:20:13;;;;;;;24.70;22.67;;;;;;;1.41;100.00;101574.19;4919021;29;20614;-88
2021/04/17 04:22:40;;;;;;;24.50;22.50;;;;;;;1.31;100.00;101569.72;4919361;29;20061;-89
2021/04/17 04:25:09;;;;;;;23.45;21.48;;;;;;;1.32;100.00;101565.31;4922904;29;20623;-88
2021/04/17 04:27:35;;;;;;;23.23;21.42;;;;;;;1.63;100.00;101560.16;4922326;29;20477;-88
2021/04/17 04:30:02;;;;;;;25.40;23.50;;;;;;;1.72;100.00;101569.88;4921227;29;20055;-88
2021/04/17 04:32:28;;;;;;;25.20;23.30;;;;;;;1.53;100.00;101563.53;4922540;29;20060;-87
2021/04/17 04:34:55;;;;;;;36.28;32.75;;;;;;;1.56;100.00;101558.06;4918478;29;20063;-88
2021/04/17 04:37:22;;;;;;;28.13;25.83;;;;;;;1.75;100.00;101572.25;4918058;29;20443;-88
2021/04/17 04:39:48;;;;;;;26.92;24.95;;;;;;;1.85;100.00;101570.53;4922448;29;20051;-88
2021/04/17 04:42:14;;;;;;;24.13;22.33;;;;;;;1.89;100.00;101563.25;4922663;29;20434;-88
2021/04/17 04:44:41;;;;;;;25.88;23.85;;;;;;;2.00;100.00;101565.81;4922475;29;20056;-88
2021/04/17 04:47:07;;;;;;;30.50;27.85;;;;;;;2.26;100.00;101564.41;4922562;29;20043;-87
2021/04/17 04:49:33;;;;;;;30.70;28.20;;;;;;;2.38;100.00;101570.38;4908611;29;20044;-88
2021/04/17 04:52:06;;;;;;;32.10;29.63;;;;;;;2.19;100.00;101560.66;4866792;29;20056;-87
2021/04/17 04:54:32;;;;;;;30.98;28.48;;;;;;;2.46;100.00;101559.25;4919098;29;20059;-87
2021/04/17 04:57:00;;;;;;;31.05;28.35;;;;;;;2.80;100.00;101549.28;4915760;29;20152;-87
2021/04/17 05:02:04;;;;;;;33.10;30.08;;;;;;;2.26;100.00;101546.06;5936462;23;20030;-87
2021/04/17 05:04:32;;;;;;;33.75;30.55;;;;;;;2.43;100.00;101555.09;4928569;29;20058;-87
2021/04/17 05:06:59;;;;;;;33.65;30.63;;;;;;;2.81;100.00;101553.53;4930779;29;20425;-87
2021/04/17 05:09:31;;;;;;;29.90;27.63;;;;;;;2.71;100.00;101548.28;4930189;29;20064;-87
2021/04/17 05:11:58;;;;;;;30.30;27.80;;;;;;;3.06;100.00;101554.03;4921680;29;20530;-87
2021/04/17 05:17:08;;;;;;;30.85;28.25;;;;;;;2.80;100.00;101544.03;4919833;29;20048;-86
2021/04/17 05:19:36;;;;;;;28.85;26.40;;;;;;;3.35;100.00;101552.22;4914989;29;20127;-86
2021/04/17 05:22:05;;;;;;;30.25;27.98;;;;;;;3.58;100.00;101550.16;4904499;29;20046;-88
2021/04/17 05:24:35;;;;;;;32.45;29.95;;;;;;;3.24;100.00;101551.53;4922353;29;20051;-87
2021/04/17 05:27:03;;;;;;;30.08;27.88;;;;;;;3.12;100.00;101540.34;4919051;29;20046;-88
2021/04/17 05:29:30;;;;;;;28.30;26.27;;;;;;;3.44;100.00;101538.25;4915084;29;20044;-87
2021/04/17 05:31:59;;;;;;;29.30;27.00;;;;;;;3.49;100.00;101540.50;4920235;29;20549;-87
2021/04/17 05:34:29;;;;;;;30.98;28.92;;;;;;;3.50;100.00;101543.94;4919285;29;20055;-88
2021/04/17 05:36:55;;;;;;;29.15;26.83;;;;;;;3.40;100.00;101533.44;4915047;29;20048;-88
2021/04/17 05:39:24;;;;;;;29.13;26.67;;;;;;;3.61;100.00;101534.13;4919935;29;20111;-87
2021/04/17 05:44:27;;;;;;;34.22;31.33;;;;;;;4.50;100.00;101524.97;5905350;23;20186;-88
2021/04/17 05:46:53;;;;;;;34.28;31.38;;;;;;;4.66;100.00;101511.16;4940033;29;20043;-88
2021/04/17 05:49:20;;;;;;;31.63;28.83;;;;;;;4.96;100.00;101513.47;4952165;29;20049;-88
2021/04/17 05:51:46;;;;;;;32.20;29.77;;;;;;;5.07;100.00;101522.13;4954671;29;20043;-88
2021/04/17 05:54:14;;;;;;;34.33;31.23;;;;;;;5.28;100.00;101509.47;4954539;29;20054;-88
2021/04/17 05:56:40;;;;;;;31.08;28.30;;;;;;;5.35;100.00;101504.44;4953656;29;20079;-88
2021/04/17 05:59:07;;;;;;;31.58;29.08;;;;;;;5.41;100.00;101504.63;4954317;29;20058;-88
2021/04/17 06:01:35;;;;;;;31.08;28.67;;;;;;;5.09;100.00;101502.56;4954554;29;20054;-88
2021/04/17 06:04:01;;;;;;;31.23;29.02;;;;;;;5.26;100.00;101507.00;4953700;29;20051;-88
2021/04/17 06:06:28;;;;;;;35.83;32.90;;;;;;;5.24;100.00;101508.97;4953705;29;20059;-88
2021/04/17 06:08:54;;;;;;;33.33;30.65;;;;;;;5.36;100.00;101498.19;4952088;29;20067;-87
2021/04/17 06:11:20;;;;;;;32.17;29.42;;;;;;;5.53;100.00;101499.13;4954652;28;20054;-88
2021/04/17 06:13:47;;;;;;;30.85;28.65;;;;;;;5.61;100.00;101502.66;4953373;29;20055;-87
2021/04/17 06:16:14;;;;;;;49.45;39.45;;;;;;;5.77;100.00;101493.19;4945702;29;20047;-88
2021/04/17 06:18:41;;;;;;;37.22;33.95;;;;;;;5.65;100.00;101500.53;4953874;29;20063;-88
2021/04/17 06:21:08;;;;;;;37.97;34.42;;;;;;;5.87;100.00;101501.81;4953811;29;20075;-88
2021/04/17 06:23:34;;;;;;;33.20;30.85;;;;;;;5.90;100.00;101489.19;4953651;29;20047;-88
2021/04/17 06:26:01;;;;;;;31.45;29.00;;;;;;;5.91;100.00;101492.63;4954050;29;20055;-87
2021/04/17 06:28:32;;;;;;;30.02;27.88;;;;;;;5.91;100.00;101485.53;4924161;28;20047;-86
2021/04/17 06:31:00;;;;;;;32.47;30.10;;;;;;;5.80;100.00;101487.63;4951552;29;20055;-88
2021/04/17 06:33:27;;;;;;;31.80;29.55;;;;;;;6.08;100.00;101486.50;4950964;29;20054;-88
2021/04/17 06:35:55;;;;;;;32.47;29.90;;;;;;;6.09;100.00;101482.03;4951756;29;20537;-87
2021/04/17 06:38:21;;;;;;;32.65;30.38;;;;;;;6.43;100.00;101487.28;4891294;28;20064;-89
2021/04/17 06:40:50;;;;;;;30.65;28.30;;;;;;;6.16;100.00;101478.59;4950879;29;20062;-88
2021/04/17 06:43:21;;;;;;;31.75;29.45;;;;;;;6.37;100.00;101483.47;4950064;28;20543;-88
2021/04/17 06:45:49;;;;;;;32.17;29.88;;;;;;;6.72;100.00;101486.03;4952564;29;20059;-87
2021/04/17 06:48:17;;;;;;;32.22;29.77;;;;;;;6.81;100.00;101488.56;4953715;28;20054;-86
2021/04/17 06:50:46;;;;;;;43.88;39.78;;;;;;;6.93;100.00;101486.44;4952913;28;20379;-88
2021/04/17 06:53:17;;;;;;;55.28;45.35;;;;;;;6.95;100.00;101480.97;4952592;28;20051;-87
2021/04/17 06:55:48;;;;;;;45.40;40.55;;;;;;;7.18;100.00;101471.41;4951713;28;20051;-88
2021/04/17 06:58:14;;;;;;;39.40;35.38;;;;;;;7.05;100.00;101471.06;4951169;28;20047;-88
2021/04/17 07:00:42;;;;;;;38.20;34.65;;;;;;;7.10;100.00;101469.59;4953620;28;20051;-87
2021/04/17 07:03:08;;;;;;;36.97;33.70;;;;;;;7.40;100.00;101477.03;4953387;28;20071;-87
2021/04/17 07:05:38;;;;;;;35.83;32.58;;;;;;;7.39;100.00;101473.56;4954155;28;20051;-87
2021/04/17 07:08:06;;;;;;;34.97;32.13;;;;;;;7.67;100.00;101470.53;4951215;28;20051;-88
2021/04/17 07:10:33;;;;;;;34.33;31.27;;;;;;;7.93;100.00;101465.84;4956049;28;20071;-88
2021/04/17 07:13:10;;;;;;;35.38;31.80;;;;;;;8.17;100.00;101470.25;4951474;28;20433;-88
2021/04/17 07:15:38;;;;;;;36.92;33.63;;;;;;;8.47;100.00;101463.34;4952962;28;20476;-88
2021/04/17 07:55:41;;;;;;;30.25;28.35;;;;;;;10.78;100.00;101427.16;5092691;23;20028;-88
2021/04/17 07:58:12;;;;;;;31.45;29.75;;;;;;;11.21;99.06;101431.63;4961244;28;20051;-89
2021/04/17 08:00:39;;;;;;;32.20;29.87;;;;;;;11.85;100.00;101436.78;4949212;29;20071;-87
2021/04/17 08:03:07;;;;;;;32.65;30.65;;;;;;;11.97;100.00;101423.72;4953546;29;20291;-91
2021/04/17 08:05:34;;;;;;;30.95;27.92;;;;;;;12.25;100.00;101422.81;4953245;29;20071;-88
2021/04/17 08:08:01;;;;;;;32.30;29.92;;;;;;;12.03;100.00;101411.47;4954220;29;20055;-91
2021/04/17 08:10:29;;;;;;;30.63;28.83;;;;;;;12.03;94.17;101412.28;4952850;29;20047;-89
2021/04/17 08:12:59;;;;;;;32.25;30.35;;;;;;;11.90;90.56;101407.72;4951912;29;20058;-90
2021/04/17 08:15:25;;;;;;;32.60;30.60;;;;;;;11.69;90.39;101407.78;4949997;29;20063;-88
2021/04/17 08:17:54;;;;;;;33.67;31.52;;;;;;;12.21;87.10;101402.94;4950225;28;20047;-89
2021/04/17 08:20:21;;;;;;;39.05;36.38;;;;;;;12.24;78.70;101403.34;4949778;28;20593;-90
2021/04/17 08:22:50;;;;;;;31.15;29.35;;;;;;;12.76;78.63;101399.16;4949179;29;20070;-90
2021/04/17 08:25:20;;;;;;;33.63;31.17;;;;;;;13.05;81.63;101403.28;4950425;29;20051;-91
2021/04/17 08:27:48;;;;;;;37.35;35.13;;;;;;;12.83;72.86;101383.19;4951292;29;20043;-90
2021/04/17 08:30:20;;;;;;;34.30;32.10;;;;;;;12.61;82.41;101394.00;4951656;28;20047;-90
2021/04/17 08:32:47;;;;;;;31.60;29.88;;;;;;;12.43;71.46;101380.44;4950718;28;20102;-89
2021/04/17 08:35:16;;;;;;;40.63;38.03;;;;;;;12.24;70.29;101376.72;4951651;28;20141;-92
2021/04/17 08:38:01;;;;;;;33.80;31.52;;;;;;;12.91;75.03;101374.16;4949421;29;20113;-89
2021/04/17 08:40:51;;;;;;;37.35;35.25;;;;;;;13.00;74.57;101375.59;4946938;28;20106;-92
2021/04/17 08:43:37;;;;;;;44.00;40.75;;;;;;;13.31;75.09;101364.28;4948105;28;20475;-92
2021/04/17 08:46:13;;;;;;;32.50;30.52;;;;;;;13.27;73.22;101365.75;4949516;28;20073;-92
2021/04/17 08:48:57;;;;;;;31.02;29.23;;;;;;;13.73;58.97;101359.47;4950946;28;20055;-92
2021/04/17 08:51:28;;;;;;;32.53;30.63;;;;;;;13.59;81.21;101365.88;4949933;28;20186;-92
2021/04/17 08:54:12;;;;;;;30.58;28.77;;;;;;;13.63;77.23;101359.09;4950912;28;20051;-90
2021/04/17 08:57:03;;;;;;;32.33;30.42;;;;;;;14.26;78.48;101363.75;4958066;28;20050;-89
2021/04/17 08:59:33;;;;;;;36.90;33.60;;;;;;;13.83;83.04;101349.16;4941677;28;20057;-89
2021/04/17 09:02:03;;;;;;;32.75;30.40;;;;;;;13.97;78.18;101360.59;4955308;28;20043;-90
2021/04/17 09:04:31;;;;;;;33.30;31.25;;;;;;;14.07;66.20;101342.28;4950286;29;20075;-89
2021/04/17 09:06:58;;;;;;;34.15;31.90;;;;;;;14.57;75.40;101337.03;4950646;28;20528;-91
2021/04/17 09:09:26;;;;;;;32.83;30.80;;;;;;;13.68;88.01;101344.09;4951663;29;20055;-90
2021/04/17 09:11:54;;;;;;;32.90;30.67;;;;;;;14.24;69.12;101339.91;4952700;29;20055;-90
2021/04/17 09:15:04;;;;;;;31.63;29.77;;;;;;;14.73;61.84;101330.31;4950974;29;20051;-89
2021/04/17 09:17:48;;;;;;;37.33;34.78;;;;;;;15.01;64.31;101329.91;4950319;29;20477;-92
2021/04/17 09:20:38;;;;;;;33.70;31.80;;;;;;;15.30;63.69;101325.66;4950333;28;20047;-92
2021/04/17 09:23:04;;;;;;;33.50;31.50;;;;;;;14.95;52.00;101320.06;4951854;29;20429;-90
2021/04/17 09:25:39;;;;;;;34.25;32.45;;;;;;;14.84;46.93;101315.44;4952224;28;20055;-92
2021/04/17 09:28:06;;;;;;;31.77;29.95;;;;;;;14.54;52.23;101302.72;4945787;28;20051;-90
2021/04/17 09:30:32;;;;;;;33.78;31.67;;;;;;;14.72;50.61;101304.63;4954778;28;20047;-91
2021/04/17 09:33:00;;;;;;;33.08;31.08;;;;;;;14.71;50.88;101292.31;4950945;28;20050;-89
2021/04/17 09:35:29;;;;;;;35.53;33.33;;;;;;;15.37;48.66;101298.00;4951631;29;20476;-90
2021/04/17 09:38:02;;;;;;;38.33;35.80;;;;;;;15.77;43.28;101290.38;4949889;29;20110;-90
2021/04/17 09:40:30;;;;;;;38.28;35.97;;;;;;;15.01;46.58;101283.59;4951329;28;20055;-90
2021/04/17 09:42:57;;;;;;;35.70;33.58;;;;;;;15.34;47.31;101264.50;4950074;28;20749;-90
2021/04/17 09:45:31;;;;;;;35.28;33.17;;;;;;;15.48;49.14;101273.19;4952704;28;20058;-89
2021/04/17 09:48:00;;;;;;;34.63;32.55;;;;;;;14.96;46.59;101270.88;4955603;28;20055;-90
2021/04/17 09:50:30;;;;;;;35.05;33.28;;;;;;;15.38;47.96;101272.91;4954925;28;20055;-90
2021/04/17 09:53:09;;;;;;;34.90;32.90;;;;;;;15.56;48.68;101263.00;4954704;28;20052;-90
2021/04/17 09:55:46;;;;;;;35.75;33.65;;;;;;;15.97;43.56;101242.66;4950722;28;20059;-90
2021/04/17 09:58:20;;;;;;;39.22;37.03;;;;;;;15.24;45.64;101248.97;4915984;29;20827;-90
2021/04/17 10:00:47;;;;;;;38.13;35.85;;;;;;;15.77;50.48;101231.44;4912109;29;20505;-90
2021/04/17 10:03:24;;;;;;;33.15;30.92;;;;;;;15.77;48.01;101234.94;4912603;29;20056;-90
2021/04/17 10:05:51;;;;;;;32.72;30.58;;;;;;;16.04;42.21;101237.22;4914119;29;20052;-90
2021/04/17 10:08:26;;;;;;;33.42;31.55;;;;;;;16.00;45.34;101231.50;4915381;29;20056;-90
2021/04/17 10:10:53;;;;;;;36.85;34.75;;;;;;;16.00;42.22;101241.41;4913607;29;20108;-90
2021/04/17 10:13:42;;;;;;;35.53;33.70;;;;;;;15.75;42.66;101241.56;4917749;29;20197;-90
2021/04/17 10:16:09;;;;;;;37.08;35.10;;;;;;;15.86;45.07;101237.31;4916747;29;20052;-90
2021/04/17 10:18:39;;;;;;;37.55;35.55;;;;;;;16.44;52.91;101233.91;4914334;29;20568;-91
2021/04/17 10:24:27;;;;;;;32.25;29.98;;;;;;;15.85;42.59;101225.75;4910887;29;20055;-91
2021/04/17 10:27:15;;;;;;;41.92;39.03;;;;;;;15.86;44.27;101230.06;4912171;29;20496;-91
2021/04/17 10:29:44;;;;;;;33.40;31.70;;;;;;;15.66;42.98;101224.97;4913103;29;20058;-92
2021/04/17 10:32:15;;;;;;;34.90;32.78;;;;;;;15.31;42.19;101222.13;4914908;29;20047;-91
2021/04/17 10:34:55;;;;;;;31.48;29.68;;;;;;;15.42;45.86;101216.00;4147474;29;10000870;-91
2021/04/17 10:37:23;;;;;;;35.03;32.53;;;;;;;15.11;41.73;101212.47;4903322;29;20277;-90
2021/04/17 10:40:16;;;;;;;32.70;30.83;;;;;;;15.46;42.85;101211.00;4912422;29;20048;-91
2021/04/17 10:43:04;;;;;;;34.03;32.15;;;;;;;15.21;42.59;101211.13;4909823;29;20553;-91
2021/04/17 10:45:46;;;;;;;38.45;36.42;;;;;;;15.55;52.43;101206.97;4903931;29;20044;-91
2021/04/17 10:48:15;;;;;;;37.95;36.00;;;;;;;15.65;45.94;101214.50;4910027;29;20055;-93
2021/04/17 10:51:02;;;;;;;31.17;29.35;;;;;;;15.55;44.96;101204.31;4907747;29;20143;-91
2021/04/17 10:53:35;;;;;;;34.92;32.75;;;;;;;15.66;45.87;101206.22;4912290;29;20569;-91
2021/04/17 10:56:11;;;;;;;38.25;36.25;;;;;;;15.49;42.20;101197.19;4915348;29;20079;-91
2021/04/17 10:58:47;;;;;;;37.08;35.08;;;;;;;15.87;43.65;101204.09;4909665;29;20079;-91
2021/04/17 11:01:18;;;;;;;35.42;33.25;;;;;;;15.62;43.46;101202.38;4909446;29;20100;-92
2021/04/17 11:03:46;;;;;;;36.92;34.92;;;;;;;15.26;41.28;101196.03;4910238;29;20051;-92
2021/04/17 11:06:19;;;;;;;31.08;29.27;;;;;;;15.25;41.61;101193.56;4913374;29;20052;-91
2021/04/17 11:08:49;;;;;;;35.22;33.15;;;;;;;15.46;43.72;101189.59;4908639;29;20068;-91
2021/04/17 11:11:21;;;;;;;33.38;31.38;;;;;;;15.34;45.27;101194.94;4906866;29;20513;-91
2021/04/17 11:14:00;;;;;;;34.33;32.03;;;;;;;15.31;49.53;101182.81;4911796;29;20449;-92
2021/04/17 11:16:35;;;;;;;33.30;31.20;;;;;;;15.25;48.46;101188.22;4907824;29;20509;-91
2021/04/17 11:19:04;;;;;;;32.90;30.80;;;;;;;15.78;44.46;101177.66;4908301;29;20060;-91
2021/04/17 11:21:36;;;;;;;34.28;32.03;;;;;;;16.38;50.79;101176.69;4907737;29;20060;-92
2021/04/17 11:24:13;;;;;;;33.10;30.70;;;;;;;16.15;49.74;101179.34;4907760;29;20075;-92
2021/04/17 11:26:40;;;;;;;31.08;29.38;;;;;;;15.66;49.32;101175.94;4912999;29;20062;-92
2021/04/17 11:29:10;;;;;;;28.77;27.17;;;;;;;14.41;81.66;101178.03;4917183;29;20048;-91
2021/04/17 11:31:38;;;;;;;30.90;28.88;;;;;;;15.76;45.66;101170.88;4916714;29;20112;-92
2021/04/17 11:34:05;;;;;;;33.60;31.70;;;;;;;16.20;40.85;101177.59;4914411;29;20060;-92
2021/04/17 11:36:39;;;;;;;32.33;30.45;;;;;;;16.07;44.29;101175.16;4909657;29;20118;-91
2021/04/17 11:39:06;;;;;;;30.65;28.58;;;;;;;15.99;43.82;101173.63;4910137;29;20063;-91
2021/04/17 11:41:33;;;;;;;29.05;27.45;;;;;;;15.77;42.77;101161.81;4915984;29;20056;-93
2021/04/17 11:44:04;;;;;;;29.63;27.83;;;;;;;15.74;51.71;101162.28;4913917;29;20531;-91
2021/04/17 11:46:32;;;;;;;31.38;29.23;;;;;;;15.47;44.35;101162.63;4915570;29;20510;-91
2021/04/17 11:48:58;;;;;;;31.80;30.00;;;;;;;14.93;44.99;101158.19;4915304;29;20052;-92
2021/04/17 11:51:25;;;;;;;29.65;27.55;;;;;;;15.24;52.48;101157.97;4914871;29;20490;-91
2021/04/17 11:53:52;;;;;;;31.58;29.60;;;;;;;15.38;43.83;101149.78;4913896;29;20055;-91
2021/04/17 11:56:19;;;;;;;29.13;27.30;;;;;;;15.25;43.29;101150.75;4914910;29;20106;-91
2021/04/17 11:58:48;;;;;;;28.05;26.13;;;;;;;15.23;52.82;101155.53;4915037;29;20047;-91
2021/04/17 12:01:14;;;;;;;30.00;28.08;;;;;;;15.03;46.83;101150.44;4914486;29;20491;-91
2021/04/17 12:03:41;;;;;;;29.20;27.40;;;;;;;14.66;46.85;101143.25;4915568;29;20054;-91
2021/04/17 12:06:08;;;;;;;28.73;26.50;;;;;;;14.70;52.41;101151.63;4915015;29;20127;-91